createdAt,value
2023-11-15T00:01:03.246Z,99.99
2023-11-15T00:04:11.278Z,99.99
2023-11-15T00:07:19.238Z,99.99
2023-11-15T00:10:28.018Z,99.99
2023-11-15T00:13:35.688Z,99.99
2023-11-15T00:16:43.100Z,99.99
2023-11-15T00:19:52.158Z,99.99
2023-11-15T00:22:59.802Z,99.99
2023-11-15T00:26:07.140Z,99.99
2023-11-15T00:29:14.938Z,99.99
2023-11-15T00:32:24.629Z,99.99
2023-11-15T00:35:32.121Z,99.99
2023-11-15T00:38:39.731Z,99.99
2023-11-15T00:41:48.227Z,99.99
2023-11-15T00:44:55.773Z,99.99
2023-11-15T00:48:03.031Z,99.99
2023-11-15T00:51:11.798Z,99.99
2023-11-15T00:54:18.991Z,99.99
2023-11-15T00:57:26.548Z,99.99
2023-11-15T01:00:35.217Z,99.99
2023-11-15T01:03:42.448Z,99.99
2023-11-15T01:06:49.518Z,99.99
2023-11-15T01:09:59.019Z,99.99
2023-11-15T01:13:06.720Z,99.99
2023-11-15T01:16:14.494Z,99.99
2023-11-15T01:19:21.385Z,99.99
2023-11-15T01:22:31.145Z,99.99
2023-11-15T01:25:38.184Z,99.99
2023-11-15T01:28:45.794Z,99.99
2023-11-15T01:31:54.343Z,99.99
2023-11-15T01:35:02.186Z,99.99
2023-11-15T01:38:09.463Z,99.99
2023-11-15T01:41:18.399Z,99.99
2023-11-15T01:44:25.852Z,99.99
2023-11-15T01:47:32.704Z,99.99
2023-11-15T01:50:42.351Z,99.99
2023-11-15T01:53:49.748Z,99.99
2023-11-15T01:56:59.776Z,99.99
2023-11-15T02:00:06.942Z,99.99
2023-11-15T02:03:15.380Z,99.99
2023-11-15T02:06:22.745Z,99.99
2023-11-15T02:09:30.333Z,99.99
2023-11-15T02:12:39.121Z,99.99
2023-11-15T02:15:46.450Z,99.99
2023-11-15T02:18:53.721Z,99.99
2023-11-15T02:22:02.485Z,99.99
2023-11-15T02:25:10.317Z,99.99
2023-11-15T02:28:17.184Z,99.99
2023-11-15T02:31:26.447Z,99.99
2023-11-15T02:34:34.672Z,99.95
2023-11-15T02:37:42.419Z,99.95
2023-11-15T02:40:49.353Z,99.84
2023-11-15T02:43:58.483Z,99.95
2023-11-15T02:47:05.551Z,99.99
2023-11-15T02:50:13.090Z,99.99
2023-11-15T02:53:21.693Z,99.99
2023-11-15T02:56:29.197Z,99.99
2023-11-15T02:59:36.702Z,99.99
2023-11-15T03:02:45.816Z,99.95
2023-11-15T03:05:52.519Z,99.84
2023-11-15T03:09:00.519Z,99.84
2023-11-15T03:12:09.348Z,99.74
2023-11-15T03:15:17.305Z,99.95
2023-11-15T03:18:24.760Z,99.99
2023-11-15T03:21:34.309Z,99.99
2023-11-15T03:24:42.245Z,99.99
2023-11-15T03:27:49.927Z,99.99
2023-11-15T03:30:57.402Z,99.99
2023-11-15T03:34:06.697Z,99.99
2023-11-15T03:37:14.172Z,99.99
2023-11-15T03:40:21.883Z,99.99
2023-11-15T03:43:30.095Z,99.99
2023-11-15T03:46:37.748Z,99.99
2023-11-15T03:49:44.724Z,99.99
2023-11-15T03:52:53.041Z,99.99
2023-11-15T03:56:00.672Z,99.99
2023-11-15T03:59:08.188Z,99.99
2023-11-15T04:02:16.834Z,99.99
2023-11-15T04:05:24.297Z,99.99
2023-11-15T04:08:31.879Z,99.99
2023-11-15T04:11:38.703Z,99.99
2023-11-15T04:14:48.554Z,99.99
2023-11-15T04:17:56.249Z,99.99
2023-11-15T04:21:03.942Z,99.99
2023-11-15T04:24:13.168Z,99.99
2023-11-15T04:27:20.440Z,99.99
2023-11-15T04:30:27.702Z,99.99
2023-11-15T04:33:36.484Z,99.99
2023-11-15T04:36:43.914Z,99.99
2023-11-15T04:39:51.428Z,99.99
2023-11-15T04:43:00.644Z,99.99
2023-11-15T04:46:07.860Z,99.99
2023-11-15T04:49:15.609Z,99.99
2023-11-15T04:52:23.534Z,99.99
2023-11-15T04:55:32.271Z,99.99
2023-11-15T04:58:40.013Z,99.99
2023-11-15T05:01:47.597Z,99.99
2023-11-15T05:04:56.502Z,99.99
2023-11-15T05:08:03.891Z,99.99
2023-11-15T05:11:11.809Z,99.99
2023-11-15T05:14:21.727Z,99.99
2023-11-15T05:17:28.812Z,99.99
2023-11-15T05:20:36.155Z,99.99
2023-11-15T05:23:44.849Z,99.99
2023-11-15T05:26:51.692Z,99.99
2023-11-15T05:29:59.176Z,99.99
2023-11-15T05:33:06.819Z,99.99
2023-11-15T05:36:15.750Z,99.99
2023-11-15T05:39:22.718Z,99.99
2023-11-15T05:42:30.209Z,99.99
2023-11-15T05:45:39.013Z,99.99
2023-11-15T05:48:46.405Z,99.99
2023-11-15T05:51:53.780Z,99.99
2023-11-15T05:55:02.669Z,99.99
2023-11-15T05:58:10.703Z,99.99
2023-11-15T06:01:17.891Z,99.99
2023-11-15T06:04:26.867Z,99.99
2023-11-15T06:07:34.338Z,99.99
2023-11-15T06:10:42.446Z,99.99
2023-11-15T06:13:50.887Z,99.99
2023-11-15T06:16:58.828Z,99.99
2023-11-15T06:20:07.332Z,99.99
2023-11-15T06:23:15.152Z,99.99
2023-11-15T06:26:24.183Z,99.99
2023-11-15T06:29:32.235Z,99.99
2023-11-15T06:32:39.492Z,99.99
2023-11-15T06:35:48.626Z,99.99
2023-11-15T06:38:56.050Z,99.99
2023-11-15T06:42:03.723Z,99.99
2023-11-15T06:45:12.116Z,99.99
2023-11-15T06:48:19.124Z,99.99
2023-11-15T06:51:28.778Z,99.99
2023-11-15T06:54:37.137Z,99.99
2023-11-15T06:57:45.332Z,99.99
2023-11-15T07:00:52.455Z,99.99
2023-11-15T07:04:00.492Z,99.99
2023-11-15T07:07:09.136Z,99.99
2023-11-15T07:10:16.249Z,99.99
2023-11-15T07:13:23.360Z,99.99
2023-11-15T07:16:32.177Z,99.99
2023-11-15T07:19:39.815Z,99.99
2023-11-15T07:22:47.240Z,99.99
2023-11-15T07:25:56.153Z,99.99
2023-11-15T07:29:03.692Z,99.99
2023-11-15T07:32:11.727Z,99.99
2023-11-15T07:35:19.877Z,99.99
2023-11-15T07:38:27.400Z,99.99
2023-11-15T07:41:36.211Z,99.99
2023-11-15T07:44:43.370Z,99.99
2023-11-15T07:47:52.477Z,99.99
2023-11-15T07:51:00.045Z,99.99
2023-11-15T07:54:07.630Z,99.99
2023-11-15T07:57:16.604Z,99.99
2023-11-15T08:00:24.416Z,99.99
2023-11-15T08:03:31.713Z,99.99
2023-11-15T08:06:40.057Z,99.99
2023-11-15T08:09:48.878Z,99.99
2023-11-15T08:12:55.529Z,99.99
2023-11-15T08:16:04.755Z,99.99
2023-11-15T08:19:11.949Z,99.99
2023-11-15T08:22:19.152Z,99.99
2023-11-15T08:25:26.590Z,99.99
2023-11-15T08:28:35.314Z,99.99
2023-11-15T08:31:42.566Z,99.99
2023-11-15T08:34:49.838Z,99.99
2023-11-15T08:37:58.933Z,99.99
2023-11-15T08:41:06.090Z,99.99
2023-11-15T08:44:14.613Z,99.99
2023-11-15T08:47:23.930Z,99.99
2023-11-15T08:50:30.990Z,99.99
2023-11-15T08:53:38.751Z,99.99
2023-11-15T08:56:47.357Z,99.99
2023-11-15T08:59:54.674Z,99.99
2023-11-15T09:03:01.939Z,99.99
2023-11-15T09:06:09.579Z,99.58
2023-11-15T09:09:19.073Z,99.48
2023-11-15T09:12:26.633Z,99.38
2023-11-15T09:15:33.903Z,99.58
2023-11-15T09:18:42.486Z,99.68
2023-11-15T09:21:50.755Z,99.48
2023-11-15T09:25:06.928Z,99.58
2023-11-15T09:28:03.814Z,99.27
2023-11-15T09:31:11.985Z,99.33
2023-11-15T09:34:19.549Z,99.02
2023-11-15T09:37:28.318Z,99.22
2023-11-15T09:40:36.729Z,98.71
2023-11-15T09:43:43.466Z,98.57
2023-11-15T09:46:52.612Z,98.46
2023-11-15T09:49:59.761Z,97.64
2023-11-15T09:53:07.361Z,97.64
2023-11-15T09:56:14.121Z,98.16
2023-11-15T09:59:23.251Z,97.64
2023-11-15T10:02:30.591Z,97.03
2023-11-15T10:05:37.865Z,97.33
2023-11-15T10:08:46.336Z,97.33
2023-11-15T10:11:54.003Z,97.49
2023-11-15T10:15:01.096Z,97.39
2023-11-15T10:18:10.437Z,96.57
2023-11-15T10:21:19.697Z,96.47
2023-11-15T10:24:28.016Z,96.78
2023-11-15T10:27:36.175Z,95.75
2023-11-15T10:30:44.401Z,95.54
2023-11-15T10:33:51.724Z,96.37
2023-11-15T10:40:08.908Z,95.75
2023-11-15T10:43:16.121Z,95.09
2023-11-15T10:46:23.179Z,95.09
2023-11-15T10:49:32.315Z,94.37
2023-11-15T10:52:40.148Z,95.40
2023-11-15T10:55:47.225Z,95.20
2023-11-15T10:58:56.239Z,95.61
2023-11-15T11:02:02.974Z,95.70
2023-11-15T11:05:10.268Z,95.29
2023-11-15T11:08:18.993Z,95.09
2023-11-15T11:11:25.861Z,94.07
2023-11-15T11:14:32.916Z,94.58
2023-11-15T11:17:42.319Z,95.25
2023-11-15T11:20:51.806Z,95.15
2023-11-15T11:23:59.701Z,94.84
2023-11-15T11:27:06.685Z,94.84
2023-11-15T11:30:17.844Z,94.95
2023-11-15T11:33:17.446Z,94.54
2023-11-15T11:36:25.276Z,93.92
2023-11-15T11:39:33.926Z,93.10
2023-11-15T11:42:41.677Z,93.51
2023-11-15T11:45:49.315Z,93.92
2023-11-15T11:48:57.877Z,94.84
2023-11-15T11:52:05.327Z,94.33
2023-11-15T11:55:12.441Z,95.05
2023-11-15T11:58:19.950Z,94.84
2023-11-15T12:01:28.887Z,95.25
2023-11-15T12:04:35.781Z,96.07
2023-11-15T12:07:43.436Z,96.48
2023-11-15T12:10:52.108Z,97.09
2023-11-15T12:13:59.442Z,97.30
2023-11-15T12:17:07.298Z,97.40
2023-11-15T12:20:16.572Z,97.30
2023-11-15T12:23:24.322Z,97.45
2023-11-15T12:26:31.977Z,96.88
2023-11-15T12:29:41.448Z,97.49
2023-11-15T12:32:48.221Z,97.91
2023-11-15T12:35:55.639Z,98.52
2023-11-15T12:39:03.375Z,99.13
2023-11-15T12:42:12.453Z,99.54
2023-11-15T12:45:19.696Z,99.85
2023-11-15T12:48:27.608Z,99.95
2023-11-15T12:51:36.384Z,99.99
2023-11-15T12:54:43.632Z,99.99
2023-11-15T12:57:51.193Z,99.99
2023-11-15T13:00:59.767Z,99.99
2023-11-15T13:04:07.629Z,99.99
2023-11-15T13:07:15.431Z,99.80
2023-11-15T13:10:24.083Z,99.70
2023-11-15T13:13:31.849Z,99.91
2023-11-15T13:16:39.561Z,99.80
2023-11-15T13:19:48.299Z,99.70
2023-11-15T13:22:56.321Z,99.70
2023-11-15T13:26:04.105Z,99.95
2023-11-15T13:29:11.447Z,99.99
2023-11-15T13:32:20.148Z,99.99
2023-11-15T13:35:27.331Z,99.99
2023-11-15T13:38:34.112Z,99.99
2023-11-15T13:41:43.503Z,99.99
2023-11-15T13:44:50.517Z,99.99
2023-11-15T13:47:58.605Z,99.99
2023-11-15T13:51:07.408Z,99.99
2023-11-15T13:54:14.645Z,99.99
2023-11-15T13:57:21.723Z,99.99
2023-11-15T14:00:30.397Z,99.99
2023-11-15T14:03:37.765Z,99.99
2023-11-15T14:06:45.032Z,99.99
2023-11-15T14:09:52.865Z,99.99
2023-11-15T14:13:01.604Z,99.99
2023-11-15T14:16:08.921Z,99.99
2023-11-15T14:19:16.748Z,99.99
2023-11-15T14:22:24.933Z,99.99
2023-11-15T14:25:32.837Z,99.99
2023-11-15T14:28:40.331Z,99.99
2023-11-15T14:31:49.325Z,99.99
2023-11-15T14:34:56.228Z,99.99
2023-11-15T14:38:03.957Z,99.99
2023-11-15T14:41:12.217Z,99.99
2023-11-15T14:44:20.150Z,99.99
2023-11-15T14:47:27.315Z,99.99
2023-11-15T14:50:34.535Z,99.99
2023-11-15T14:53:43.790Z,99.99
2023-11-15T14:56:51.327Z,99.99
2023-11-15T14:59:58.203Z,99.99
2023-11-15T15:03:06.940Z,99.99
2023-11-15T15:06:15.644Z,99.99
2023-11-15T15:09:22.689Z,99.99
2023-11-15T15:12:31.303Z,99.84
2023-11-15T15:15:39.098Z,99.18
2023-11-15T15:18:46.048Z,98.61
2023-11-15T15:21:55.140Z,98.41
2023-11-15T15:25:01.859Z,98.20
2023-11-15T15:28:09.478Z,97.79
2023-11-15T15:31:17.329Z,97.79
2023-11-15T15:34:25.665Z,97.58
2023-11-15T15:37:33.514Z,97.48
2023-11-15T15:40:41.761Z,97.38
2023-11-15T15:43:50.458Z,97.17
2023-11-15T15:46:57.699Z,97.38
2023-11-15T15:50:05.524Z,97.38
2023-11-15T15:53:14.126Z,98.10
2023-11-15T15:56:21.348Z,98.61
2023-11-15T15:59:28.725Z,99.38
2023-11-15T16:02:37.791Z,99.89
2023-11-15T16:05:44.515Z,99.99
2023-11-15T16:08:51.665Z,99.99
2023-11-15T16:11:59.729Z,99.99
2023-11-15T16:15:06.907Z,99.99
2023-11-15T16:18:15.059Z,99.99
2023-11-15T16:21:23.382Z,99.99
2023-11-15T16:24:32.614Z,99.99
2023-11-15T16:27:40.192Z,99.99
2023-11-15T16:30:48.048Z,99.99
2023-11-15T16:33:57.516Z,99.99
2023-11-15T16:37:04.522Z,99.99
2023-11-15T16:40:12.669Z,99.99
2023-11-15T16:43:21.726Z,99.99
2023-11-15T16:46:30.727Z,99.99
2023-11-15T16:49:01.379Z,99.99
2023-11-15T16:52:11.645Z,99.99
2023-11-15T16:55:14.052Z,99.99
2023-11-15T16:58:20.753Z,99.99
2023-11-15T16:59:51.512Z,99.99
2023-11-15T17:00:45.996Z,99.99
2023-11-15T17:01:29.362Z,99.99
2023-11-15T17:02:12.793Z,99.99
2023-11-15T17:05:15.525Z,99.99
2023-11-15T17:08:23.009Z,99.99
2023-11-15T17:11:30.958Z,99.99
2023-11-15T17:14:40.521Z,99.99
2023-11-15T17:17:48.791Z,99.99
2023-11-15T17:20:55.600Z,99.99
2023-11-15T17:24:04.316Z,99.99
2023-11-15T17:27:11.596Z,99.99
2023-11-15T17:30:18.872Z,99.99
2023-11-15T17:33:01.239Z,99.99
2023-11-15T17:36:10.523Z,99.99
2023-11-15T17:39:18.472Z,99.99
2023-11-15T17:42:26.404Z,99.99
2023-11-15T17:45:35.124Z,99.99
2023-11-15T17:48:41.911Z,99.99
2023-11-15T17:51:49.946Z,99.99
2023-11-15T17:54:58.163Z,99.99
2023-11-15T17:58:05.851Z,99.99
2023-11-15T18:01:13.539Z,99.99
2023-11-15T18:04:22.697Z,99.99
2023-11-15T18:07:29.820Z,99.99
2023-11-15T18:10:37.315Z,99.99
2023-11-15T18:13:45.506Z,99.99
2023-11-15T18:16:53.673Z,99.99
2023-11-15T18:20:00.939Z,99.99
2023-11-15T18:23:08.052Z,99.99
2023-11-15T18:26:17.123Z,99.99
2023-11-15T18:29:25.140Z,99.99
2023-11-15T18:32:32.258Z,99.99
2023-11-15T18:35:42.876Z,99.99
2023-11-15T18:38:52.426Z,99.99
2023-11-15T18:42:00.060Z,99.99
2023-11-15T18:45:09.083Z,99.99
2023-11-15T18:48:16.469Z,99.99
2023-11-15T18:51:23.818Z,99.99
2023-11-15T18:54:32.824Z,99.99
2023-11-15T18:57:39.830Z,99.99
2023-11-15T19:00:46.897Z,99.99
2023-11-15T19:03:54.692Z,99.99
2023-11-15T19:07:03.215Z,99.99
2023-11-15T19:10:10.432Z,99.99
2023-11-15T19:13:17.456Z,99.99
2023-11-15T19:16:26.514Z,99.99
2023-11-15T19:19:33.630Z,99.99
2023-11-15T19:22:40.506Z,99.99
2023-11-15T19:25:49.307Z,99.99
2023-11-15T19:28:56.546Z,99.99
2023-11-15T19:32:04.320Z,99.99
2023-11-15T19:35:13.841Z,99.99
2023-11-15T19:38:21.525Z,99.99
2023-11-15T19:41:28.890Z,99.99
2023-11-15T19:44:35.842Z,99.99
2023-11-15T19:47:44.757Z,99.99
2023-11-15T19:50:52.183Z,99.99
2023-11-15T19:53:59.429Z,99.99
2023-11-15T19:57:07.569Z,99.99
2023-11-15T20:00:15.256Z,99.99
2023-11-15T20:03:22.505Z,99.99
2023-11-15T20:06:31.258Z,99.99
2023-11-15T20:09:38.525Z,99.99
2023-11-15T20:12:45.758Z,99.99
2023-11-15T20:15:54.803Z,99.99
2023-11-15T20:19:01.944Z,99.99
2023-11-15T20:22:09.158Z,99.99
2023-11-15T20:25:15.957Z,99.99
2023-11-15T20:28:30.616Z,99.99
2023-11-15T20:31:29.297Z,99.99
2023-11-15T20:34:36.273Z,99.99
2023-11-15T20:37:45.517Z,99.99
2023-11-15T20:40:52.209Z,99.99
2023-11-15T20:44:00.629Z,99.99
2023-11-15T20:47:09.971Z,99.99
2023-11-15T20:50:17.696Z,99.99
2023-11-15T20:53:24.748Z,99.99
2023-11-15T20:56:33.420Z,99.99
2023-11-15T20:59:41.297Z,99.99
2023-11-15T21:02:48.144Z,99.99
2023-11-15T21:05:56.601Z,99.99
2023-11-15T21:09:03.267Z,99.99
2023-11-15T21:12:10.573Z,99.99
2023-11-15T21:15:17.761Z,99.99
2023-11-15T21:18:26.058Z,99.99
2023-11-15T21:21:33.686Z,99.99
2023-11-15T21:24:41.095Z,99.99
2023-11-15T21:27:50.398Z,99.99
2023-11-15T21:30:58.559Z,99.99
2023-11-15T21:34:06.080Z,99.99
2023-11-15T21:37:18.752Z,99.99
2023-11-15T21:40:16.085Z,99.99
2023-11-15T21:43:23.826Z,99.99
2023-11-15T21:46:32.513Z,99.99
2023-11-15T21:49:40.306Z,99.99
2023-11-15T21:52:47.151Z,99.99
2023-11-15T21:55:55.026Z,99.99
2023-11-15T21:59:04.582Z,99.99
2023-11-15T22:02:11.730Z,99.99
2023-11-15T22:05:18.508Z,99.99
2023-11-15T22:08:28.024Z,99.99
2023-11-15T22:11:36.000Z,99.99
2023-11-15T22:14:43.288Z,99.99
2023-11-15T22:17:51.561Z,99.81
2023-11-15T22:20:58.892Z,99.66
2023-11-15T22:24:07.232Z,99.35
2023-11-15T22:27:15.507Z,99.05
2023-11-15T22:30:22.588Z,98.43
2023-11-15T22:33:30.025Z,97.97
2023-11-15T22:36:37.484Z,97.36
2023-11-15T22:39:45.769Z,96.84
2023-11-15T22:42:53.591Z,96.64
2023-11-15T22:46:00.297Z,96.84
2023-11-15T22:49:09.625Z,96.94
2023-11-15T22:52:16.932Z,97.15
2023-11-15T22:55:23.685Z,97.25
2023-11-15T22:58:32.794Z,97.36
2023-11-15T23:01:40.253Z,97.56
2023-11-15T23:04:48.205Z,97.77
2023-11-15T23:07:57.464Z,97.97
2023-11-15T23:11:06.395Z,98.18
2023-11-15T23:14:13.241Z,97.97
2023-11-15T23:17:21.211Z,97.97
2023-11-15T23:20:30.070Z,98.07
2023-11-15T23:23:37.406Z,98.07
2023-11-15T23:26:45.086Z,98.07
2023-11-15T23:29:53.573Z,98.18
2023-11-15T23:33:01.112Z,98.07
2023-11-15T23:36:08.268Z,97.66
2023-11-15T23:39:17.224Z,97.66
2023-11-15T23:42:24.460Z,97.45
2023-11-15T23:45:32.360Z,97.66
2023-11-15T23:48:40.734Z,98.07
2023-11-15T23:51:48.598Z,98.38
2023-11-15T23:54:56.731Z,98.49
2023-11-15T23:58:03.971Z,98.69
